sensor_id;sensor_type;location;lat;lon;timestamp;pressure;altitude;pressure_sealevel;temperature;humidity
55113;BME280;41006;50.920;3.456;2022-07-06T00:00:00;102440.84;;;19.80;55.26
55113;BME280;41006;50.920;3.456;2022-07-06T00:00:30;102444.34;;;19.83;54.95
55113;BME280;41006;50.920;3.456;2022-07-06T00:01:00;102442.69;;;19.77;55.26
55113;BME280;41006;50.920;3.456;2022-07-06T00:01:33;102438.25;;;19.75;55.36
55113;BME280;41006;50.920;3.456;2022-07-06T00:02:06;102434.53;;;19.81;55.16
55113;BME280;41006;50.920;3.456;2022-07-06T00:02:38;102437.31;;;19.77;55.35
55113;BME280;41006;50.920;3.456;2022-07-06T00:03:11;102440.91;;;19.76;55.07
55113;BME280;41006;50.920;3.456;2022-07-06T00:03:44;102444.56;;;19.75;55.11
55113;BME280;41006;50.920;3.456;2022-07-06T00:04:19;102436.47;;;19.74;55.37
55113;BME280;41006;50.920;3.456;2022-07-06T00:04:52;102432.72;;;19.81;55.04
55113;BME280;41006;50.920;3.456;2022-07-06T00:05:22;102439.97;;;19.79;55.58
55113;BME280;41006;50.920;3.456;2022-07-06T00:05:56;102439.94;;;19.81;55.42
55113;BME280;41006;50.920;3.456;2022-07-06T00:06:26;102446.22;;;19.80;55.43
55113;BME280;41006;50.920;3.456;2022-07-06T00:06:58;102440.06;;;19.74;55.80
55113;BME280;41006;50.920;3.456;2022-07-06T00:07:31;102441.91;;;19.72;55.88
55113;BME280;41006;50.920;3.456;2022-07-06T00:08:04;102442.69;;;19.77;56.08
55113;BME280;41006;50.920;3.456;2022-07-06T00:08:35;102444.47;;;19.78;55.83
55113;BME280;41006;50.920;3.456;2022-07-06T00:09:06;102445.34;;;19.79;55.58
55113;BME280;41006;50.920;3.456;2022-07-06T00:09:36;102444.56;;;19.75;56.24
55113;BME280;41006;50.920;3.456;2022-07-06T00:10:07;102439.16;;;19.75;56.07
55113;BME280;41006;50.920;3.456;2022-07-06T00:10:40;102447.84;;;19.87;55.59
55113;BME280;41006;50.920;3.456;2022-07-06T00:11:10;102446.00;;;19.89;55.22
55113;BME280;41006;50.920;3.456;2022-07-06T00:11:41;102435.38;;;19.83;55.19
55113;BME280;41006;50.920;3.456;2022-07-06T00:12:12;102448.00;;;19.81;55.64
55113;BME280;41006;50.920;3.456;2022-07-06T00:12:43;102444.56;;;19.75;55.88
55113;BME280;41006;50.920;3.456;2022-07-06T00:13:13;102444.69;;;19.69;55.87
55113;BME280;41006;50.920;3.456;2022-07-06T00:13:43;102441.94;;;19.71;55.88
55113;BME280;41006;50.920;3.456;2022-07-06T00:14:14;102436.47;;;19.74;55.63
55113;BME280;41006;50.920;3.456;2022-07-06T00:14:50;102439.28;;;19.69;55.87
55113;BME280;41006;50.920;3.456;2022-07-06T00:15:23;102441.16;;;19.67;55.90
55113;BME280;41006;50.920;3.456;2022-07-06T00:15:58;102441.88;;;19.74;55.64
55113;BME280;41006;50.920;3.456;2022-07-06T00:16:29;102441.00;;;19.73;56.04
55113;BME280;41006;50.920;3.456;2022-07-06T00:17:00;102438.31;;;19.73;56.09
55113;BME280;41006;50.920;3.456;2022-07-06T00:17:32;102436.28;;;19.82;55.97
55113;BME280;41006;50.920;3.456;2022-07-06T00:18:05;102443.56;;;19.78;55.93
55113;BME280;41006;50.920;3.456;2022-07-06T00:18:38;102436.47;;;19.74;55.93
55113;BME280;41006;50.920;3.456;2022-07-06T00:19:08;102444.78;;;19.65;56.33
55113;BME280;41006;50.920;3.456;2022-07-06T00:19:39;102446.56;;;19.66;56.38
55113;BME280;41006;50.920;3.456;2022-07-06T00:20:09;102441.06;;;19.70;56.18
55113;BME280;41006;50.920;3.456;2022-07-06T00:20:40;102436.53;;;19.72;56.37
55113;BME280;41006;50.920;3.456;2022-07-06T00:21:10;102441.00;;;19.73;56.31
55113;BME280;41006;50.920;3.456;2022-07-06T00:21:41;102441.00;;;19.73;56.13
55113;BME280;41006;50.920;3.456;2022-07-06T00:22:11;102442.81;;;19.71;55.95
55113;BME280;41006;50.920;3.456;2022-07-06T00:22:44;102442.75;;;19.76;55.88
55113;BME280;41006;50.920;3.456;2022-07-06T00:23:14;102446.38;;;19.73;56.01
55113;BME280;41006;50.920;3.456;2022-07-06T00:23:45;102438.25;;;19.75;55.99
55113;BME280;41006;50.920;3.456;2022-07-06T00:24:15;102444.56;;;19.75;56.07
55113;BME280;41006;50.920;3.456;2022-07-06T00:24:48;102444.56;;;19.75;55.93
55113;BME280;41006;50.920;3.456;2022-07-06T00:25:18;102439.09;;;19.78;55.57
55113;BME280;41006;50.920;3.456;2022-07-06T00:25:51;102445.47;;;19.73;55.89
55113;BME280;41006;50.920;3.456;2022-07-06T00:26:21;102442.69;;;19.77;55.91
55113;BME280;41006;50.920;3.456;2022-07-06T00:26:56;102438.22;;;19.76;55.60
55113;BME280;41006;50.920;3.456;2022-07-06T00:27:31;102445.50;;;19.71;55.90
55113;BME280;41006;50.920;3.456;2022-07-06T00:28:02;102439.38;;;19.66;55.88
55113;BME280;41006;50.920;3.456;2022-07-06T00:28:36;102433.09;;;19.66;56.29
55113;BME280;41006;50.920;3.456;2022-07-06T00:29:06;102441.00;;;19.73;55.96
55113;BME280;41006;50.920;3.456;2022-07-06T00:29:37;102440.91;;;19.76;55.89
55113;BME280;41006;50.920;3.456;2022-07-06T00:30:13;102440.91;;;19.76;56.43
55113;BME280;41006;50.920;3.456;2022-07-06T00:30:44;102434.50;;;19.82;55.98
55113;BME280;41006;50.920;3.456;2022-07-06T00:31:14;102438.94;;;19.83;55.72
55113;BME280;41006;50.920;3.456;2022-07-06T00:31:44;102442.53;;;19.84;55.43
55113;BME280;41006;50.920;3.456;2022-07-06T00:32:19;102443.66;;;19.75;55.49
55113;BME280;41006;50.920;3.456;2022-07-06T00:32:50;102445.41;;;19.77;55.73
55113;BME280;41006;50.920;3.456;2022-07-06T00:33:23;102445.41;;;19.77;55.83
55113;BME280;41006;50.920;3.456;2022-07-06T00:33:53;102435.69;;;19.70;55.89
55113;BME280;41006;50.920;3.456;2022-07-06T00:34:24;102443.88;;;19.66;56.19
55113;BME280;41006;50.920;3.456;2022-07-06T00:34:54;102442.09;;;19.65;55.90
55113;BME280;41006;50.920;3.456;2022-07-06T00:35:25;102444.75;;;19.66;56.16
55113;BME280;41006;50.920;3.456;2022-07-06T00:36:00;102437.63;;;19.65;55.95
55113;BME280;41006;50.920;3.456;2022-07-06T00:36:30;102441.16;;;19.67;55.82
55113;BME280;41006;50.920;3.456;2022-07-06T00:37:01;102440.34;;;19.64;55.63
55113;BME280;41006;50.920;3.456;2022-07-06T00:37:31;102435.06;;;19.59;56.07
55113;BME280;41006;50.920;3.456;2022-07-06T00:38:04;102436.97;;;19.55;56.52
55113;BME280;41006;50.920;3.456;2022-07-06T00:38:37;102445.16;;;19.51;56.76
55113;BME280;41006;50.920;3.456;2022-07-06T00:39:07;102435.25;;;19.51;57.00
55113;BME280;41006;50.920;3.456;2022-07-06T00:39:40;102435.25;;;19.51;57.33
55113;BME280;41006;50.920;3.456;2022-07-06T00:40:11;102438.00;;;19.50;57.20
55113;BME280;41006;50.920;3.456;2022-07-06T00:40:44;102440.72;;;19.48;57.44
55113;BME280;41006;50.920;3.456;2022-07-06T00:41:16;102440.59;;;19.53;57.23
55113;BME280;41006;50.920;3.456;2022-07-06T00:41:50;102429.00;;;19.51;57.61
55113;BME280;41006;50.920;3.456;2022-07-06T00:42:20;102440.50;;;19.57;57.28
55113;BME280;41006;50.920;3.456;2022-07-06T00:42:51;102443.03;;;19.64;56.97
55113;BME280;41006;50.920;3.456;2022-07-06T00:43:24;102440.31;;;19.65;56.80
55113;BME280;41006;50.920;3.456;2022-07-06T00:43:57;102438.38;;;19.70;56.56
55113;BME280;41006;50.920;3.456;2022-07-06T00:44:32;102438.56;;;19.63;56.56
55113;BME280;41006;50.920;3.456;2022-07-06T00:45:06;102439.50;;;19.60;56.59
55113;BME280;41006;50.920;3.456;2022-07-06T00:45:39;102434.97;;;19.64;56.64
55113;BME280;41006;50.920;3.456;2022-07-06T00:46:14;102437.69;;;19.62;56.60
55113;BME280;41006;50.920;3.456;2022-07-06T00:46:44;102437.63;;;19.65;56.31
55113;BME280;41006;50.920;3.456;2022-07-06T00:47:17;102443.94;;;19.63;56.68
55113;BME280;41006;50.920;3.456;2022-07-06T00:47:48;102441.38;;;19.58;56.98
55113;BME280;41006;50.920;3.456;2022-07-06T00:48:19;102436.78;;;19.62;56.88
55113;BME280;41006;50.920;3.456;2022-07-06T00:48:52;102437.50;;;19.68;56.70
55113;BME280;41006;50.920;3.456;2022-07-06T00:49:23;102430.16;;;19.76;56.37
55113;BME280;41006;50.920;3.456;2022-07-06T00:50:14;102433.44;;;19.88;55.85
55113;BME280;41006;50.920;3.456;2022-07-06T00:50:48;102432.59;;;19.86;55.98
55113;BME280;41006;50.920;3.456;2022-07-06T00:51:19;102432.72;;;19.81;56.38
55113;BME280;41006;50.920;3.456;2022-07-06T00:51:53;102428.31;;;19.78;56.43
55113;BME280;41006;50.920;3.456;2022-07-06T00:52:24;102431.09;;;19.74;56.85
55113;BME280;41006;50.920;3.456;2022-07-06T00:53:00;102426.75;;;19.68;57.23
55113;BME280;41006;50.920;3.456;2022-07-06T00:53:32;102430.44;;;19.64;57.41
55113;BME280;41006;50.920;3.456;2022-07-06T00:54:07;102434.06;;;19.63;57.81
55113;BME280;41006;50.920;3.456;2022-07-06T00:54:39;102426.97;;;19.60;57.88
55113;BME280;41006;50.920;3.456;2022-07-06T00:55:15;102423.22;;;19.66;57.81
55113;BME280;41006;50.920;3.456;2022-07-06T00:55:49;102427.72;;;19.66;57.87
55113;BME280;41006;50.920;3.456;2022-07-06T00:56:19;102430.38;;;19.67;57.38
55113;BME280;41006;50.920;3.456;2022-07-06T00:56:52;102423.28;;;19.63;57.54
55113;BME280;41006;50.920;3.456;2022-07-06T00:57:22;102426.84;;;19.65;57.53
55113;BME280;41006;50.920;3.456;2022-07-06T00:58:01;102421.69;;;19.56;57.52
55113;BME280;41006;50.920;3.456;2022-07-06T00:58:34;102428.72;;;19.62;57.49
55113;BME280;41006;50.920;3.456;2022-07-06T00:59:07;102427.66;;;19.69;57.42
55113;BME280;41006;50.920;3.456;2022-07-06T00:59:37;102424.03;;;19.68;57.26
55113;BME280;41006;50.920;3.456;2022-07-06T01:00:10;102424.03;;;19.68;57.19
55113;BME280;41006;50.920;3.456;2022-07-06T01:00:41;102423.22;;;19.66;57.19
55113;BME280;41006;50.920;3.456;2022-07-06T01:01:14;102425.97;;;19.63;57.53
55113;BME280;41006;50.920;3.456;2022-07-06T01:01:45;102425.09;;;19.63;57.32
55113;BME280;41006;50.920;3.456;2022-07-06T01:02:20;102425.16;;;19.61;57.33
55113;BME280;41006;50.920;3.456;2022-07-06T01:02:54;102425.00;;;19.67;57.42
55113;BME280;41006;50.920;3.456;2022-07-06T01:03:24;102417.78;;;19.68;57.33
55113;BME280;41006;50.920;3.456;2022-07-06T01:03:57;102428.66;;;19.63;57.22
55113;BME280;41006;50.920;3.456;2022-07-06T01:04:27;102433.06;;;19.67;57.23
55113;BME280;41006;50.920;3.456;2022-07-06T01:04:58;102431.50;;;19.58;57.25
55113;BME280;41006;50.920;3.456;2022-07-06T01:05:31;102428.94;;;19.54;57.31
55113;BME280;41006;50.920;3.456;2022-07-06T01:06:01;102423.63;;;19.51;57.63
55113;BME280;41006;50.920;3.456;2022-07-06T01:06:34;102431.50;;;19.58;57.51
55113;BME280;41006;50.920;3.456;2022-07-06T01:07:05;102423.53;;;19.54;57.33
55113;BME280;41006;50.920;3.456;2022-07-06T01:07:40;102428.16;;;19.49;57.70
55113;BME280;41006;50.920;3.456;2022-07-06T01:08:13;102431.78;;;19.48;57.64
55113;BME280;41006;50.920;3.456;2022-07-06T01:08:44;102423.84;;;19.41;57.70
55113;BME280;41006;50.920;3.456;2022-07-06T01:09:14;102428.53;;;19.33;58.06
55113;BME280;41006;50.920;3.456;2022-07-06T01:09:45;102427.69;;;19.31;58.30
55113;BME280;41006;50.920;3.456;2022-07-06T01:10:19;102426.94;;;19.26;58.45
55113;BME280;41006;50.920;3.456;2022-07-06T01:10:51;102435.06;;;19.23;58.61
55113;BME280;41006;50.920;3.456;2022-07-06T01:11:22;102431.44;;;19.26;58.59
55113;BME280;41006;50.920;3.456;2022-07-06T01:11:52;102429.66;;;19.25;58.88
55113;BME280;41006;50.920;3.456;2022-07-06T01:12:29;102438.56;;;19.27;59.02
55113;BME280;41006;50.920;3.456;2022-07-06T01:13:01;102435.00;;;19.26;58.92
55113;BME280;41006;50.920;3.456;2022-07-06T01:13:34;102433.31;;;19.22;58.48
55113;BME280;41006;50.920;3.456;2022-07-06T01:14:09;102435.06;;;19.23;58.78
55113;BME280;41006;50.920;3.456;2022-07-06T01:14:41;102437.88;;;19.18;59.16
55113;BME280;41006;50.920;3.456;2022-07-06T01:15:14;102432.28;;;19.28;58.83
55113;BME280;41006;50.920;3.456;2022-07-06T01:15:47;102435.84;;;19.28;58.91
55113;BME280;41006;50.920;3.456;2022-07-06T01:16:18;102436.53;;;19.36;58.50
55113;BME280;41006;50.920;3.456;2022-07-06T01:16:48;102444.50;;;19.41;58.31
55113;BME280;41006;50.920;3.456;2022-07-06T01:17:19;102438.84;;;19.52;57.85
55113;BME280;41006;50.920;3.456;2022-07-06T01:17:53;102432.53;;;19.53;58.07
55113;BME280;41006;50.920;3.456;2022-07-06T01:18:23;102429.81;;;19.54;58.04
55113;BME280;41006;50.920;3.456;2022-07-06T01:18:57;102428.03;;;19.53;58.00
55113;BME280;41006;50.920;3.456;2022-07-06T01:19:27;102435.91;;;19.61;58.08
55113;BME280;41006;50.920;3.456;2022-07-06T01:20:32;102440.38;;;19.62;57.73
55113;BME280;41006;50.920;3.456;2022-07-06T01:21:09;102440.31;;;19.65;58.21
55113;BME280;41006;50.920;3.456;2022-07-06T01:21:42;102434.06;;;19.63;57.84
55113;BME280;41006;50.920;3.456;2022-07-06T01:22:13;102444.00;;;19.61;58.17
55113;BME280;41006;50.920;3.456;2022-07-06T01:22:47;102441.16;;;19.67;58.01
55113;BME280;41006;50.920;3.456;2022-07-06T01:23:17;102437.66;;;19.64;58.26
55113;BME280;41006;50.920;3.456;2022-07-06T01:23:50;102435.88;;;19.63;58.36
55113;BME280;41006;50.920;3.456;2022-07-06T01:24:23;102443.75;;;19.70;58.03
55113;BME280;41006;50.920;3.456;2022-07-06T01:24:54;102437.63;;;19.65;57.57
55113;BME280;41006;50.920;3.456;2022-07-06T01:25:27;102444.75;;;19.66;58.01
55113;BME280;41006;50.920;3.456;2022-07-06T01:25:58;102437.69;;;19.62;58.01
55113;BME280;41006;50.920;3.456;2022-07-06T01:26:28;102433.25;;;19.59;58.03
55113;BME280;41006;50.920;3.456;2022-07-06T01:26:59;102432.38;;;19.59;58.22
55113;BME280;41006;50.920;3.456;2022-07-06T01:27:34;102435.03;;;19.60;58.45
55113;BME280;41006;50.920;3.456;2022-07-06T01:28:08;102437.66;;;19.64;58.29
55113;BME280;41006;50.920;3.456;2022-07-06T01:28:41;102435.69;;;19.70;58.08
55113;BME280;41006;50.920;3.456;2022-07-06T01:29:12;102435.72;;;19.69;57.71
55113;BME280;41006;50.920;3.456;2022-07-06T01:29:46;102436.69;;;19.66;57.93
55113;BME280;41006;50.920;3.456;2022-07-06T01:30:18;102430.31;;;19.70;57.95
55113;BME280;41006;50.920;3.456;2022-07-06T01:30:48;102432.13;;;19.68;57.70
55113;BME280;41006;50.920;3.456;2022-07-06T01:31:23;102428.53;;;19.69;58.50
55113;BME280;41006;50.920;3.456;2022-07-06T01:31:54;102435.84;;;19.64;58.42
55113;BME280;41006;50.920;3.456;2022-07-06T01:32:25;102433.97;;;19.66;58.23
55113;BME280;41006;50.920;3.456;2022-07-06T01:32:58;102439.38;;;19.66;58.29
55113;BME280;41006;50.920;3.456;2022-07-06T01:33:34;102430.31;;;19.70;58.48
55113;BME280;41006;50.920;3.456;2022-07-06T01:34:04;102430.22;;;19.73;58.29
55113;BME280;41006;50.920;3.456;2022-07-06T01:34:40;102434.69;;;19.73;58.56
55113;BME280;41006;50.920;3.456;2022-07-06T01:35:15;102438.19;;;19.78;58.41
55113;BME280;41006;50.920;3.456;2022-07-06T01:35:48;102435.41;;;19.81;58.08
55113;BME280;41006;50.920;3.456;2022-07-06T01:36:22;102426.56;;;19.76;57.79
55113;BME280;41006;50.920;3.456;2022-07-06T01:36:53;102414.28;;;19.64;58.30
55113;BME280;41006;50.920;3.456;2022-07-06T01:37:24;102433.59;;;19.82;58.01
55113;BME280;41006;50.920;3.456;2022-07-06T01:37:55;102426.47;;;19.81;58.06
55113;BME280;41006;50.920;3.456;2022-07-06T01:38:30;102430.16;;;19.76;57.88
55113;BME280;41006;50.920;3.456;2022-07-06T01:39:00;102437.44;;;19.71;58.21
55113;BME280;41006;50.920;3.456;2022-07-06T01:39:33;102435.69;;;19.70;58.44
55113;BME280;41006;50.920;3.456;2022-07-06T01:40:07;102424.91;;;19.70;58.51
55113;BME280;41006;50.920;3.456;2022-07-06T01:40:38;102427.66;;;19.69;58.58
55113;BME280;41006;50.920;3.456;2022-07-06T01:41:14;102428.75;;;19.60;58.53
55113;BME280;41006;50.920;3.456;2022-07-06T01:41:45;102423.53;;;19.54;58.88
55113;BME280;41006;50.920;3.456;2022-07-06T01:42:15;102418.19;;;19.52;59.09
55113;BME280;41006;50.920;3.456;2022-07-06T01:42:47;102420.09;;;19.49;59.28
55113;BME280;41006;50.920;3.456;2022-07-06T01:43:17;102419.91;;;19.55;59.14
55113;BME280;41006;50.920;3.456;2022-07-06T01:43:50;102420.09;;;19.49;58.71
55113;BME280;41006;50.920;3.456;2022-07-06T01:44:20;102417.84;;;19.32;58.99
55113;BME280;41006;50.920;3.456;2022-07-06T01:44:51;102420.56;;;19.30;59.25
55113;BME280;41006;50.920;3.456;2022-07-06T01:45:26;102424.03;;;19.35;59.20
55113;BME280;41006;50.920;3.456;2022-07-06T01:46:01;102417.69;;;19.36;59.04
55113;BME280;41006;50.920;3.456;2022-07-06T01:46:36;102418.88;;;19.25;58.97
55113;BME280;41006;50.920;3.456;2022-07-06T01:47:09;102411.63;;;19.28;59.04
55113;BME280;41006;50.920;3.456;2022-07-06T01:47:39;102421.38;;;19.34;59.08
55113;BME280;41006;50.920;3.456;2022-07-06T01:48:09;102415.06;;;19.33;59.05
55113;BME280;41006;50.920;3.456;2022-07-06T01:48:43;102422.31;;;19.31;59.31
55113;BME280;41006;50.920;3.456;2022-07-06T01:49:13;102423.22;;;19.32;59.04
55113;BME280;41006;50.920;3.456;2022-07-06T01:49:43;102421.41;;;19.32;59.31
55113;BME280;41006;50.920;3.456;2022-07-06T01:50:14;102417.69;;;19.36;59.30
55113;BME280;41006;50.920;3.456;2022-07-06T01:50:51;102421.25;;;19.38;59.03
55113;BME280;41006;50.920;3.456;2022-07-06T01:51:21;102420.31;;;19.39;59.18
55113;BME280;41006;50.920;3.456;2022-07-06T01:51:54;102418.38;;;19.45;59.14
55113;BME280;41006;50.920;3.456;2022-07-06T01:52:27;102411.00;;;19.53;58.65
55113;BME280;41006;50.920;3.456;2022-07-06T01:53:00;102416.53;;;19.47;59.06
55113;BME280;41006;50.920;3.456;2022-07-06T01:53:35;102421.00;;;19.48;58.77
55113;BME280;41006;50.920;3.456;2022-07-06T01:54:06;102419.19;;;19.48;58.73
55113;BME280;41006;50.920;3.456;2022-07-06T01:54:37;102414.78;;;19.46;58.78
55113;BME280;41006;50.920;3.456;2022-07-06T01:55:12;102417.53;;;19.42;58.93
55113;BME280;41006;50.920;3.456;2022-07-06T01:55:42;102412.38;;;19.33;58.80
55113;BME280;41006;50.920;3.456;2022-07-06T01:56:16;102409.69;;;19.33;59.02
55113;BME280;41006;50.920;3.456;2022-07-06T01:56:47;102414.53;;;19.20;59.38
55113;BME280;41006;50.920;3.456;2022-07-06T01:57:17;102411.69;;;19.25;59.28
55113;BME280;41006;50.920;3.456;2022-07-06T01:57:48;102416.09;;;19.29;59.04
55113;BME280;41006;50.920;3.456;2022-07-06T01:58:20;102403.81;;;19.17;59.26
55113;BME280;41006;50.920;3.456;2022-07-06T01:58:56;102407.63;;;19.09;59.80
55113;BME280;41006;50.920;3.456;2022-07-06T01:59:29;102417.25;;;19.19;59.60
55113;BME280;41006;50.920;3.456;2022-07-06T02:00:00;102414.38;;;19.25;59.38
55113;BME280;41006;50.920;3.456;2022-07-06T02:00:31;102405.28;;;19.31;59.16
55113;BME280;41006;50.920;3.456;2022-07-06T02:01:10;102409.69;;;19.33;59.15
55113;BME280;41006;50.920;3.456;2022-07-06T02:01:40;102408.84;;;19.31;59.18
55113;BME280;41006;50.920;3.456;2022-07-06T02:02:13;102410.53;;;19.37;59.08
55113;BME280;41006;50.920;3.456;2022-07-06T02:02:43;102409.53;;;19.39;58.99
55113;BME280;41006;50.920;3.456;2022-07-06T02:03:16;102406.97;;;19.35;59.17
55113;BME280;41006;50.920;3.456;2022-07-06T02:03:47;102415.06;;;19.33;59.41
55113;BME280;41006;50.920;3.456;2022-07-06T02:04:18;102410.59;;;19.34;59.22
55113;BME280;41006;50.920;3.456;2022-07-06T02:04:51;102415.00;;;19.36;59.20
55113;BME280;41006;50.920;3.456;2022-07-06T02:05:21;102408.78;;;19.34;59.26
55113;BME280;41006;50.920;3.456;2022-07-06T02:05:54;102407.00;;;19.33;59.44
55113;BME280;41006;50.920;3.456;2022-07-06T02:06:26;102404.31;;;19.33;59.59
55113;BME280;41006;50.920;3.456;2022-07-06T02:06:57;102402.66;;;19.28;59.31
55113;BME280;41006;50.920;3.456;2022-07-06T02:07:29;102408.88;;;19.30;59.45
55113;BME280;41006;50.920;3.456;2022-07-06T02:08:00;102405.41;;;19.26;59.50
55113;BME280;41006;50.920;3.456;2022-07-06T02:08:32;102404.41;;;19.30;59.86
55113;BME280;41006;50.920;3.456;2022-07-06T02:09:02;102415.19;;;19.30;59.50
55113;BME280;41006;50.920;3.456;2022-07-06T02:09:35;102411.53;;;19.31;59.95
55113;BME280;41006;50.920;3.456;2022-07-06T02:10:08;102405.31;;;19.29;59.59
55113;BME280;41006;50.920;3.456;2022-07-06T02:10:41;102407.06;;;19.32;59.67
55113;BME280;41006;50.920;3.456;2022-07-06T02:11:12;102407.97;;;19.31;59.18
55113;BME280;41006;50.920;3.456;2022-07-06T02:11:44;102407.69;;;19.41;58.98
55113;BME280;41006;50.920;3.456;2022-07-06T02:12:15;102413.06;;;19.41;58.97
55113;BME280;41006;50.920;3.456;2022-07-06T02:12:48;102412.16;;;19.42;58.69
55113;BME280;41006;50.920;3.456;2022-07-06T02:13:19;102404.16;;;19.39;58.80
55113;BME280;41006;50.920;3.456;2022-07-06T02:13:53;102414.16;;;19.34;58.80
55113;BME280;41006;50.920;3.456;2022-07-06T02:14:25;102407.06;;;19.32;58.79
55113;BME280;41006;50.920;3.456;2022-07-06T02:14:56;102413.31;;;19.32;58.92
55113;BME280;41006;50.920;3.456;2022-07-06T02:15:26;102414.28;;;19.30;58.75
55113;BME280;41006;50.920;3.456;2022-07-06T02:15:59;102416.13;;;19.28;59.04
55113;BME280;41006;50.920;3.456;2022-07-06T02:16:32;102407.19;;;19.27;59.09
55113;BME280;41006;50.920;3.456;2022-07-06T02:17:02;102408.84;;;19.31;59.63
55113;BME280;41006;50.920;3.456;2022-07-06T02:17:35;102404.56;;;19.24;59.30
55113;BME280;41006;50.920;3.456;2022-07-06T02:18:08;102410.84;;;19.23;59.38
55113;BME280;41006;50.920;3.456;2022-07-06T02:18:38;102410.75;;;19.28;59.22
55113;BME280;41006;50.920;3.456;2022-07-06T02:19:09;102410.75;;;19.28;59.18
55113;BME280;41006;50.920;3.456;2022-07-06T02:19:44;102418.13;;;19.19;59.71
55113;BME280;41006;50.920;3.456;2022-07-06T02:20:14;102418.16;;;19.18;59.70
55113;BME280;41006;50.920;3.456;2022-07-06T02:20:47;102416.25;;;19.21;59.65
55113;BME280;41006;50.920;3.456;2022-07-06T02:21:18;102415.47;;;19.18;59.65
55113;BME280;41006;50.920;3.456;2022-07-06T02:21:48;102413.97;;;19.06;59.75
55113;BME280;41006;50.920;3.456;2022-07-06T02:22:19;102414.00;;;19.04;59.82
55113;BME280;41006;50.920;3.456;2022-07-06T02:22:52;102424.72;;;19.06;59.94
55113;BME280;41006;50.920;3.456;2022-07-06T02:23:24;102421.94;;;19.11;59.88
55113;BME280;41006;50.920;3.456;2022-07-06T02:23:56;102414.84;;;19.07;59.88
55113;BME280;41006;50.920;3.456;2022-07-06T02:24:29;102413.84;;;19.11;60.08
55113;BME280;41006;50.920;3.456;2022-07-06T02:25:03;102412.81;;;19.16;59.52
55113;BME280;41006;50.920;3.456;2022-07-06T02:25:35;102413.72;;;19.17;59.87
55113;BME280;41006;50.920;3.456;2022-07-06T02:26:08;102417.34;;;19.14;60.02
55113;BME280;41006;50.920;3.456;2022-07-06T02:26:43;102409.28;;;19.14;60.03
55113;BME280;41006;50.920;3.456;2022-07-06T02:27:16;102406.56;;;19.16;59.76
55113;BME280;41006;50.920;3.456;2022-07-06T02:27:49;102412.97;;;19.10;59.90
55113;BME280;41006;50.920;3.456;2022-07-06T02:28:23;102415.50;;;19.16;59.98
55113;BME280;41006;50.920;3.456;2022-07-06T02:28:55;102408.41;;;19.14;59.96
55113;BME280;41006;50.920;3.456;2022-07-06T02:29:26;102412.97;;;19.10;59.96
55113;BME280;41006;50.920;3.456;2022-07-06T02:29:59;102408.41;;;19.14;59.84
55113;BME280;41006;50.920;3.456;2022-07-06T02:30:31;102406.63;;;19.13;60.05
55113;BME280;41006;50.920;3.456;2022-07-06T02:31:04;102399.34;;;19.16;59.70
55113;BME280;41006;50.920;3.456;2022-07-06T02:31:37;102407.28;;;19.22;59.50
55113;BME280;41006;50.920;3.456;2022-07-06T02:32:07;102404.78;;;19.15;59.45
55113;BME280;41006;50.920;3.456;2022-07-06T02:32:38;102406.69;;;19.10;59.78
55113;BME280;41006;50.920;3.456;2022-07-06T02:33:08;102402.13;;;19.13;59.71
55113;BME280;41006;50.920;3.456;2022-07-06T02:33:41;102400.47;;;19.08;59.81
55113;BME280;41006;50.920;3.456;2022-07-06T02:34:14;102401.25;;;19.13;59.76
55113;BME280;41006;50.920;3.456;2022-07-06T02:34:44;102394.09;;;19.12;59.62
55113;BME280;41006;50.920;3.456;2022-07-06T02:35:16;102396.63;;;19.18;59.42
55113;BME280;41006;50.920;3.456;2022-07-06T02:35:53;102395.16;;;19.04;59.91
55113;BME280;41006;50.920;3.456;2022-07-06T02:36:26;102398.91;;;18.99;59.76
55113;BME280;41006;50.920;3.456;2022-07-06T02:36:56;102397.00;;;19.02;60.10
55113;BME280;41006;50.920;3.456;2022-07-06T02:37:31;102396.19;;;19.00;60.03
55113;BME280;41006;50.920;3.456;2022-07-06T02:38:07;102396.22;;;18.99;60.32
55113;BME280;41006;50.920;3.456;2022-07-06T02:38:37;102398.84;;;19.02;59.56
55113;BME280;41006;50.920;3.456;2022-07-06T02:39:08;102397.09;;;18.99;60.14
55113;BME280;41006;50.920;3.456;2022-07-06T02:39:41;102396.25;;;18.97;60.15
55113;BME280;41006;50.920;3.456;2022-07-06T02:40:11;102396.25;;;18.97;60.06
55113;BME280;41006;50.920;3.456;2022-07-06T02:40:46;102394.53;;;18.93;60.30
55113;BME280;41006;50.920;3.456;2022-07-06T02:41:21;102392.72;;;18.95;60.03
55113;BME280;41006;50.920;3.456;2022-07-06T02:41:52;102391.19;;;18.82;60.24
55113;BME280;41006;50.920;3.456;2022-07-06T02:42:24;102388.75;;;18.71;60.75
55113;BME280;41006;50.920;3.456;2022-07-06T02:43:00;102393.31;;;18.67;60.86
55113;BME280;41006;50.920;3.456;2022-07-06T02:43:32;102391.69;;;18.60;60.88
55113;BME280;41006;50.920;3.456;2022-07-06T02:44:03;102391.78;;;18.56;61.14
55113;BME280;41006;50.920;3.456;2022-07-06T02:44:36;102385.47;;;18.57;61.29
55113;BME280;41006;50.920;3.456;2022-07-06T02:45:10;102390.84;;;18.57;61.25
55113;BME280;41006;50.920;3.456;2022-07-06T02:45:43;102394.56;;;18.51;61.00
55113;BME280;41006;50.920;3.456;2022-07-06T02:46:14;102387.47;;;18.48;61.46
55113;BME280;41006;50.920;3.456;2022-07-06T02:46:44;102395.41;;;18.53;61.59
55113;BME280;41006;50.920;3.456;2022-07-06T02:47:15;102394.34;;;18.62;61.22
55113;BME280;41006;50.920;3.456;2022-07-06T02:47:48;102393.38;;;18.64;61.11
55113;BME280;41006;50.920;3.456;2022-07-06T02:48:21;102389.72;;;18.68;60.88
55113;BME280;41006;50.920;3.456;2022-07-06T02:48:56;102390.66;;;18.66;61.29